Time;durP1;ratioP1;P1;durP2;ratioP2;P2;SDS_P1;SDS_P2;PMS_P1;PMS_P2;Temp;Humidity;BMP_temperature;BMP_pressure;BME280_temperature;BME280_humidity;BME280_pressure;Samples;Min_cycle;Max_cycle;Signal;HPM_P1;HPM_P2
2022/08/31 00:06:06;;;;;;;4.93;0.82;;;14.70;99.90;;;;;;5092342;28;20613;-41
2022/08/31 00:08:33;;;;;;;1.40;0.70;;;14.90;99.90;;;;;;5092512;28;20043;-39
2022/08/31 00:10:59;;;;;;;2.13;0.75;;;15.50;99.90;;;;;;5091508;28;20054;-39
2022/08/31 00:13:26;;;;;;;2.22;0.80;;;14.80;99.90;;;;;;5093838;28;20044;-39
2022/08/31 00:15:53;;;;;;;5.03;1.00;;;14.80;99.90;;;;;;5091748;28;20035;-40
2022/08/31 00:18:20;;;;;;;4.63;0.80;;;14.70;99.90;;;;;;5091625;28;20956;-39
2022/08/31 00:20:47;;;;;;;3.92;0.82;;;14.70;99.90;;;;;;5091723;28;20054;-40
2022/08/31 00:23:14;;;;;;;1.98;0.85;;;14.80;99.90;;;;;;5094268;28;20039;-40
2022/08/31 00:25:42;;;;;;;4.15;0.80;;;14.60;99.90;;;;;;5092488;28;20062;-39
2022/08/31 00:28:09;;;;;;;1.45;0.70;;;14.50;99.90;;;;;;5090378;28;20727;-41
2022/08/31 00:30:35;;;;;;;2.03;0.82;;;14.70;99.90;;;;;;5092091;28;20035;-39
2022/08/31 00:33:03;;;;;;;2.22;0.90;;;14.50;99.90;;;;;;5091741;28;20163;-40
2022/08/31 00:35:30;;;;;;;2.15;0.73;;;14.50;99.90;;;;;;5092261;28;20845;-39
2022/08/31 00:37:57;;;;;;;2.97;1.10;;;14.60;99.90;;;;;;5091848;28;20054;-39
2022/08/31 00:40:23;;;;;;;1.95;0.80;;;14.50;99.90;;;;;;5091503;28;20393;-39
2022/08/31 00:42:49;;;;;;;2.78;1.00;;;16.10;99.90;;;;;;5107961;27;20044;-40
2022/08/31 00:45:15;;;;;;;1.38;0.70;;;14.50;99.90;;;;;;5093327;28;20458;-38
2022/08/31 00:47:41;;;;;;;3.28;0.70;;;14.40;99.90;;;;;;5091951;28;20580;-40
2022/08/31 00:50:11;;;;;;;2.40;0.98;;;14.50;99.90;;;;;;5092097;27;20059;-39
2022/08/31 00:52:41;;;;;;;2.67;0.93;;;14.50;99.90;;;;;;5095279;27;20031;-40
2022/08/31 00:55:18;;;;;;;3.60;0.80;;;14.50;99.90;;;;;;5097439;27;20043;-38
2022/08/31 00:57:46;;;;;;;1.23;0.57;;;14.60;99.90;;;;;;5095553;27;20416;-40
2022/08/31 01:00:17;;;;;;;3.60;0.90;;;14.20;99.90;;;;;;5096043;27;20100;-39
2022/08/31 01:02:43;;;;;;;5.50;0.90;;;14.60;99.90;;;;;;5095863;27;20078;-39
2022/08/31 01:05:10;;;;;;;1.42;0.82;;;14.40;99.90;;;;;;5096674;27;20488;-39
2022/08/31 01:07:37;;;;;;;2.30;0.80;;;14.40;99.90;;;;;;5096833;27;20042;-39
2022/08/31 01:10:04;;;;;;;2.92;0.80;;;14.40;99.90;;;;;;5095707;27;20106;-40
2022/08/31 01:12:30;;;;;;;1.92;1.33;;;14.40;99.90;;;;;;5096033;27;20082;-39
2022/08/31 01:14:57;;;;;;;1.73;0.70;;;14.30;99.90;;;;;;5097738;27;20089;-40
2022/08/31 01:17:23;;;;;;;2.72;0.95;;;14.40;99.90;;;;;;5095903;27;20507;-39
2022/08/31 01:19:58;;;;;;;1.02;0.70;;;14.40;99.90;;;;;;5095383;27;20096;-39
2022/08/31 01:22:50;;;;;;;1.38;0.70;;;14.20;99.90;;;;;;5097224;27;20078;-40
2022/08/31 01:25:16;;;;;;;3.05;1.25;;;14.40;99.90;;;;;;5073088;27;20051;-39
2022/08/31 01:27:42;;;;;;;2.60;0.80;;;14.20;99.90;;;;;;5095265;27;20058;-40
2022/08/31 01:30:10;;;;;;;3.55;0.80;;;14.10;99.90;;;;;;5095188;27;20137;-39
2022/08/31 01:32:37;;;;;;;2.13;0.75;;;14.20;99.90;;;;;;5095302;27;20039;-39
2022/08/31 01:35:04;;;;;;;2.20;0.90;;;13.90;99.90;;;;;;5096140;27;20043;-39
2022/08/31 01:37:30;;;;;;;2.55;0.93;;;13.90;99.90;;;;;;5095327;27;20063;-39
2022/08/31 01:39:55;;;;;;;1.73;0.90;;;15.30;99.90;;;;;;5093953;27;20188;-39
2022/08/31 01:42:21;;;;;;;1.73;0.80;;;13.70;99.90;;;;;;5094965;27;20075;-39
2022/08/31 01:44:47;;;;;;;2.33;0.85;;;13.70;99.90;;;;;;5095679;27;20142;-39
2022/08/31 01:47:12;;;;;;;2.60;0.93;;;11.60;99.90;;;;;;5094486;27;20357;-39
2022/08/31 01:49:38;;;;;;;4.72;1.05;;;13.80;99.90;;;;;;5094510;28;20048;-39
2022/08/31 01:52:06;;;;;;;6.85;0.88;;;13.70;99.90;;;;;;5093902;27;20027;-40
2022/08/31 01:54:32;;;;;;;2.33;1.13;;;13.60;99.90;;;;;;5094755;27;20027;-41
2022/08/31 01:57:00;;;;;;;2.35;0.90;;;13.50;99.90;;;;;;5093367;27;20036;-39
2022/08/31 01:59:26;;;;;;;1.70;0.90;;;13.60;99.90;;;;;;5094276;27;20035;-39
2022/08/31 02:01:54;;;;;;;1.15;0.68;;;13.40;99.90;;;;;;5093973;27;20031;-39
2022/08/31 02:04:22;;;;;;;4.45;0.90;;;13.40;99.90;;;;;;5093913;27;20483;-39
2022/08/31 02:06:51;;;;;;;2.83;0.80;;;13.30;99.90;;;;;;5095165;27;20071;-38
2022/08/31 02:09:19;;;;;;;4.50;0.80;;;13.40;99.90;;;;;;5094248;27;20039;-39
2022/08/31 02:11:44;;;;;;;1.42;0.73;;;13.30;99.90;;;;;;5093931;27;20047;-40
2022/08/31 02:14:10;;;;;;;2.28;1.00;;;13.30;99.90;;;;;;5095144;27;20425;-38
2022/08/31 02:16:37;;;;;;;1.58;0.90;;;13.30;99.90;;;;;;5093928;27;20407;-38
2022/08/31 02:19:04;;;;;;;4.10;0.90;;;13.40;99.90;;;;;;5094329;27;20051;-38
2022/08/31 02:21:30;;;;;;;2.17;0.73;;;13.20;99.90;;;;;;5093837;27;20184;-38
2022/08/31 02:23:55;;;;;;;3.30;0.80;;;13.00;99.90;;;;;;5093161;27;20047;-39
2022/08/31 02:26:21;;;;;;;1.58;0.90;;;13.20;99.90;;;;;;5096271;27;20047;-38
2022/08/31 02:28:47;;;;;;;2.95;0.80;;;13.10;99.90;;;;;;5094634;27;20147;-38
2022/08/31 02:31:13;;;;;;;5.25;0.82;;;12.90;99.90;;;;;;5093607;28;20031;-38
2022/08/31 02:33:39;;;;;;;2.15;0.80;;;13.10;99.90;;;;;;5094911;27;20123;-39
2022/08/31 02:36:05;;;;;;;1.83;0.80;;;13.20;99.90;;;;;;5095249;27;20043;-39
2022/08/31 02:38:33;;;;;;;2.95;1.00;;;12.30;99.90;;;;;;5095121;27;20039;-39
2022/08/31 02:40:58;;;;;;;1.98;0.90;;;12.90;99.90;;;;;;5094136;27;20312;-39
2022/08/31 02:43:24;;;;;;;2.22;0.95;;;13.70;99.90;;;;;;5094747;27;20051;-41
2022/08/31 02:45:50;;;;;;;1.70;0.95;;;12.80;99.90;;;;;;5095407;28;20050;-39
2022/08/31 02:48:16;;;;;;;3.15;1.17;;;12.60;99.90;;;;;;5093894;27;20457;-39
2022/08/31 02:50:44;;;;;;;4.53;1.00;;;12.80;99.90;;;;;;5093917;27;20055;-39
2022/08/31 02:53:12;;;;;;;2.15;0.77;;;12.80;99.90;;;;;;5092822;27;20043;-40
2022/08/31 02:55:38;;;;;;;4.43;0.77;;;12.90;99.90;;;;;;5093766;27;20555;-39
2022/08/31 02:58:05;;;;;;;2.42;0.90;;;13.40;99.90;;;;;;5093846;27;20054;-39
2022/08/31 03:00:31;;;;;;;2.42;1.13;;;12.50;99.90;;;;;;5093176;27;20036;-39
2022/08/31 03:02:58;;;;;;;2.35;0.90;;;14.50;99.90;;;;;;5093433;27;20474;-39
2022/08/31 03:05:24;;;;;;;3.63;0.95;;;12.40;99.90;;;;;;5093792;27;20031;-44
2022/08/31 03:07:50;;;;;;;3.65;0.98;;;12.20;99.90;;;;;;5093593;27;20059;-39
2022/08/31 03:10:19;;;;;;;1.30;0.82;;;12.20;99.90;;;;;;5091710;27;20036;-38
2022/08/31 03:12:46;;;;;;;2.45;0.75;;;12.20;99.90;;;;;;5092854;27;20113;-39
2022/08/31 03:15:12;;;;;;;1.65;0.90;;;12.70;99.90;;;;;;5093768;28;20051;-39
2022/08/31 03:17:37;;;;;;;1.67;0.80;;;12.20;99.90;;;;;;5094042;27;20043;-38
2022/08/31 03:20:05;;;;;;;2.05;0.73;;;12.10;99.90;;;;;;5092299;28;20046;-38
2022/08/31 03:22:31;;;;;;;3.15;0.98;;;11.90;99.90;;;;;;5092453;27;20058;-39
2022/08/31 03:24:57;;;;;;;3.58;1.00;;;12.10;99.90;;;;;;5092796;27;20044;-39
2022/08/31 03:27:23;;;;;;;4.40;1.00;;;12.00;99.90;;;;;;5093168;27;20101;-39
2022/08/31 03:29:52;;;;;;;3.40;0.80;;;12.10;99.90;;;;;;5092613;27;20047;-40
2022/08/31 03:32:19;;;;;;;4.78;0.98;;;12.20;99.90;;;;;;5092352;28;20035;-38
2022/08/31 03:34:45;;;;;;;3.17;1.00;;;13.00;99.90;;;;;;5093658;28;20071;-39
2022/08/31 03:37:11;;;;;;;2.55;1.10;;;11.90;99.90;;;;;;5092896;28;20138;-38
2022/08/31 03:39:37;;;;;;;3.17;0.82;;;12.00;99.90;;;;;;5092259;27;20048;-39
2022/08/31 03:42:05;;;;;;;2.10;0.90;;;12.60;99.90;;;;;;5092055;28;20055;-40
2022/08/31 03:44:32;;;;;;;2.30;0.90;;;11.60;99.90;;;;;;5093245;28;20376;-39
2022/08/31 03:46:59;;;;;;;4.60;1.02;;;12.00;99.90;;;;;;5092496;28;20063;-38
2022/08/31 03:49:25;;;;;;;2.38;0.90;;;12.00;99.90;;;;;;5092534;28;20059;-39
2022/08/31 03:51:51;;;;;;;5.63;1.15;;;11.80;99.90;;;;;;5092537;28;20040;-39
2022/08/31 03:54:18;;;;;;;2.00;0.73;;;12.00;99.90;;;;;;5092823;28;20036;-38
2022/08/31 03:56:45;;;;;;;2.83;0.85;;;11.90;99.90;;;;;;5093339;28;20058;-38
2022/08/31 03:59:11;;;;;;;2.65;1.10;;;12.00;99.90;;;;;;5092580;28;20040;-39
2022/08/31 04:01:37;;;;;;;3.13;0.98;;;11.90;99.90;;;;;;5093111;28;20054;-38
2022/08/31 04:04:03;;;;;;;2.60;1.00;;;12.00;99.90;;;;;;5094089;28;20471;-38
2022/08/31 04:06:30;;;;;;;2.25;1.00;;;12.10;99.90;;;;;;5092718;28;20039;-39
2022/08/31 04:08:56;;;;;;;1.90;0.90;;;12.50;99.90;;;;;;5091787;28;20044;-38
2022/08/31 04:11:22;;;;;;;2.20;1.10;;;11.90;99.90;;;;;;5092968;28;20050;-39
2022/08/31 04:13:48;;;;;;;2.42;0.95;;;12.00;99.90;;;;;;5092277;28;20052;-39
2022/08/31 04:16:18;;;;;;;5.43;1.13;;;12.50;99.90;;;;;;5091786;28;21409;-39
2022/08/31 04:18:45;;;;;;;2.50;1.10;;;11.80;99.90;;;;;;5093272;28;20104;-38
2022/08/31 04:21:20;;;;;;;1.90;0.90;;;12.00;99.90;;;;;;5092208;27;20047;-38
2022/08/31 04:23:47;;;;;;;2.13;0.90;;;11.90;99.90;;;;;;5093186;28;20039;-38
2022/08/31 04:26:39;;;;;;;2.08;1.10;;;11.80;99.90;;;;;;5097265;27;20028;-38
2022/08/31 04:29:06;;;;;;;2.35;1.02;;;11.90;99.90;;;;;;5097368;27;20043;-38
2022/08/31 04:31:34;;;;;;;4.35;1.30;;;11.80;99.90;;;;;;5095204;27;20062;-39
2022/08/31 04:33:59;;;;;;;3.50;1.27;;;12.20;99.90;;;;;;5096112;27;20074;-39
2022/08/31 04:36:27;;;;;;;3.58;1.35;;;11.80;99.90;;;;;;5097499;27;20503;-38
2022/08/31 04:38:55;;;;;;;4.53;2.10;;;11.90;99.90;;;;;;5096803;27;20062;-38
2022/08/31 04:41:22;;;;;;;2.20;1.20;;;11.70;99.90;;;;;;5096848;27;20052;-38
2022/08/31 04:43:51;;;;;;;5.93;1.30;;;11.80;99.90;;;;;;5096028;27;20089;-38
2022/08/31 04:46:18;;;;;;;2.10;1.20;;;12.00;99.90;;;;;;5096750;27;20039;-38
2022/08/31 04:48:44;;;;;;;3.92;1.40;;;11.80;99.90;;;;;;5095625;27;20414;-38
2022/08/31 04:51:16;;;;;;;4.68;1.70;;;11.70;99.90;;;;;;5095147;27;20130;-39
2022/08/31 04:53:42;;;;;;;2.40;1.23;;;11.70;99.90;;;;;;5094075;27;20526;-38
2022/08/31 04:56:14;;;;;;;4.57;1.40;;;11.70;99.90;;;;;;5095863;28;20052;-38
2022/08/31 04:58:47;;;;;;;8.35;1.35;;;13.90;99.90;;;;;;5096054;27;20170;-38
2022/08/31 05:01:16;;;;;;;4.00;1.77;;;11.80;99.90;;;;;;5095497;27;20750;-39
2022/08/31 05:03:42;;;;;;;3.47;1.30;;;12.60;99.90;;;;;;5094290;27;20120;-38
2022/08/31 05:06:14;;;;;;;3.33;1.40;;;11.60;99.90;;;;;;5092528;27;20052;-38
2022/08/31 05:08:40;;;;;;;3.53;1.57;;;13.70;99.90;;;;;;5093815;27;20163;-38
2022/08/31 05:11:15;;;;;;;6.18;1.48;;;11.90;99.90;;;;;;5093826;28;20895;-38
2022/08/31 05:13:41;;;;;;;2.22;1.27;;;14.00;99.90;;;;;;5095464;27;20717;-38
2022/08/31 05:16:09;;;;;;;4.03;1.33;;;12.70;99.90;;;;;;5096078;27;20044;-39
2022/08/31 05:18:39;;;;;;;3.97;1.60;;;12.20;99.90;;;;;;5095938;27;20051;-39
2022/08/31 05:21:15;;;;;;;3.53;1.40;;;12.40;99.90;;;;;;5095730;28;20070;-38
2022/08/31 05:23:44;;;;;;;2.08;1.20;;;12.10;99.90;;;;;;5094720;27;20044;-38
2022/08/31 05:26:17;;;;;;;6.63;1.60;;;13.50;99.90;;;;;;5094361;27;20082;-38
2022/08/31 05:28:43;;;;;;;3.40;1.40;;;13.90;99.90;;;;;;5093971;27;20046;-39
2022/08/31 05:31:08;;;;;;;6.32;1.58;;;12.20;99.90;;;;;;5094153;28;20035;-38
2022/08/31 05:33:34;;;;;;;3.53;1.50;;;12.30;99.90;;;;;;5092646;27;20039;-38
2022/08/31 05:36:01;;;;;;;3.28;1.63;;;14.30;99.90;;;;;;5094519;27;20040;-38
2022/08/31 05:38:26;;;;;;;3.08;1.55;;;12.40;99.90;;;;;;5094104;27;20199;-40
2022/08/31 05:40:53;;;;;;;3.97;1.38;;;12.60;99.90;;;;;;5095723;27;20231;-38
2022/08/31 05:43:20;;;;;;;2.55;1.45;;;12.50;99.90;;;;;;5095573;28;20617;-38
2022/08/31 05:45:46;;;;;;;3.20;1.48;;;12.70;99.90;;;;;;5095818;27;20309;-38
2022/08/31 05:48:11;;;;;;;3.40;1.60;;;12.80;99.90;;;;;;5093719;28;20043;-39
2022/08/31 05:50:37;;;;;;;3.67;1.45;;;13.40;99.90;;;;;;5095639;27;20039;-38
2022/08/31 05:53:03;;;;;;;4.10;1.58;;;13.00;99.90;;;;;;5094329;27;20291;-38
2022/08/31 05:55:30;;;;;;;5.20;1.50;;;13.10;99.90;;;;;;5094261;27;20430;-39
2022/08/31 05:57:56;;;;;;;2.90;1.50;;;12.90;99.90;;;;;;5094537;28;20051;-39
2022/08/31 06:00:21;;;;;;;2.83;1.58;;;14.70;99.90;;;;;;5095318;27;20047;-39
2022/08/31 06:02:47;;;;;;;3.15;1.30;;;13.50;99.90;;;;;;5093509;27;20055;-39
2022/08/31 06:05:13;;;;;;;4.15;1.40;;;13.60;99.90;;;;;;5094398;27;20114;-40
2022/08/31 06:07:38;;;;;;;4.50;1.50;;;13.80;99.90;;;;;;5095250;27;20487;-40
2022/08/31 06:10:04;;;;;;;3.53;1.50;;;13.90;99.90;;;;;;5093949;27;20040;-39
2022/08/31 06:12:33;;;;;;;5.13;1.45;;;14.30;99.90;;;;;;5093966;27;20418;-40
2022/08/31 06:15:00;;;;;;;3.13;1.35;;;15.60;99.90;;;;;;5093469;27;20027;-42
2022/08/31 06:17:27;;;;;;;3.13;1.40;;;16.00;99.90;;;;;;5096035;27;20035;-40
2022/08/31 06:19:54;;;;;;;4.22;1.35;;;16.80;99.90;;;;;;5094983;27;20089;-41
2022/08/31 06:22:20;;;;;;;6.25;1.70;;;18.10;99.90;;;;;;5094413;27;20036;-41
2022/08/31 06:24:46;;;;;;;3.60;1.27;;;19.00;99.90;;;;;;5092661;27;20050;-40
2022/08/31 06:27:12;;;;;;;6.10;1.20;;;20.30;99.90;;;;;;5094783;27;20042;-45
2022/08/31 06:29:37;;;;;;;3.38;0.93;;;20.90;99.90;;;;;;5094678;28;20785;-44
2022/08/31 06:32:09;;;;;;;4.90;1.17;;;21.70;99.90;;;;;;5093647;28;20051;-41
2022/08/31 06:34:37;;;;;;;2.92;1.10;;;22.80;99.90;;;;;;5092809;27;20050;-45
2022/08/31 06:37:03;;;;;;;15.57;2.22;;;22.70;99.90;;;;;;5093452;28;20762;-41
2022/08/31 06:39:29;;;;;;;1.70;0.90;;;23.50;99.90;;;;;;5094186;27;20628;-44
2022/08/31 06:41:55;;;;;;;3.72;1.15;;;24.00;99.90;;;;;;5094544;28;20320;-43
2022/08/31 06:44:22;;;;;;;2.72;0.90;;;23.30;99.90;;;;;;5094410;27;20053;-43
2022/08/31 06:46:50;;;;;;;3.40;0.90;;;23.90;99.90;;;;;;5093295;27;20798;-44
2022/08/31 06:49:16;;;;;;;3.45;0.98;;;24.20;99.90;;;;;;5092810;27;20035;-45
2022/08/31 06:51:43;;;;;;;3.25;1.10;;;25.00;99.90;;;;;;5094087;28;20047;-45
2022/08/31 06:54:11;;;;;;;3.70;0.60;;;24.60;99.90;;;;;;5092727;27;20063;-45
2022/08/31 06:56:37;;;;;;;2.00;0.95;;;25.20;99.90;;;;;;5092679;27;20637;-43
2022/08/31 06:59:04;;;;;;;1.70;0.90;;;25.60;99.90;;;;;;5093243;27;20143;-45
2022/08/31 07:01:31;;;;;;;6.43;0.90;;;25.90;99.90;;;;;;5093692;27;20430;-44
2022/08/31 07:03:59;;;;;;;2.25;0.75;;;26.00;99.90;;;;;;5092733;27;20051;-44
2022/08/31 07:06:31;;;;;;;3.60;0.98;;;26.30;99.90;;;;;;5093205;27;20067;-44
2022/08/31 07:08:59;;;;;;;1.60;0.68;;;26.40;99.90;;;;;;5094597;27;20040;-44
2022/08/31 07:11:32;;;;;;;2.20;0.70;;;26.50;99.90;;;;;;5093226;27;20650;-44
2022/08/31 07:13:58;;;;;;;1.67;0.75;;;26.60;99.80;;;;;;5091947;27;20043;-45
2022/08/31 07:16:26;;;;;;;1.88;0.80;;;26.30;99.90;;;;;;5093233;27;20090;-44
2022/08/31 07:18:53;;;;;;;1.65;0.70;;;26.30;99.20;;;;;;5092016;28;20028;-46
2022/08/31 07:21:21;;;;;;;1.92;0.70;;;26.70;99.50;;;;;;5091047;28;20036;-44
2022/08/31 07:23:48;;;;;;;0.85;0.60;;;26.30;99.30;;;;;;5093970;27;20062;-45
2022/08/31 07:26:24;;;;;;;2.50;0.70;;;25.80;99.00;;;;;;5092286;27;20044;-45
2022/08/31 07:28:52;;;;;;;1.23;0.50;;;26.40;99.90;;;;;;5091597;28;20843;-45
2022/08/31 07:31:23;;;;;;;2.05;0.63;;;24.60;99.90;;;;;;5093911;27;20162;-42
2022/08/31 07:33:51;;;;;;;3.90;0.50;;;24.20;99.90;;;;;;5093793;27;20039;-45
2022/08/31 07:36:17;;;;;;;1.10;0.50;;;23.80;99.90;;;;;;5091725;27;20736;-42
2022/08/31 07:44:15;;;;;;;7.28;0.70;;;22.10;99.90;;;;;;5093874;28;20108;-45
2022/08/31 07:46:41;;;;;;;1.63;0.60;;;22.10;99.90;;;;;;5095250;27;20080;-44
2022/08/31 07:49:12;;;;;;;1.67;0.60;;;21.90;99.90;;;;;;5092701;28;20407;-44
2022/08/31 07:51:45;;;;;;;2.63;0.60;;;21.70;99.90;;;;;;5092821;28;20047;-41
2022/08/31 07:54:12;;;;;;;1.60;0.60;;;21.40;99.90;;;;;;5092581;28;20053;-44
2022/08/31 07:56:41;;;;;;;2.92;0.50;;;20.90;99.90;;;;;;5091560;28;20043;-40
2022/08/31 07:59:08;;;;;;;1.67;0.68;;;20.90;99.90;;;;;;5091662;28;20070;-40
2022/08/31 08:01:36;;;;;;;4.15;0.70;;;21.00;99.90;;;;;;5092439;28;20050;-41
2022/08/31 08:04:05;;;;;;;2.78;0.60;;;21.10;99.90;;;;;;5092675;27;20054;-45
2022/08/31 08:06:31;;;;;;;1.95;0.70;;;20.60;99.90;;;;;;5092135;28;20125;-43
2022/08/31 08:09:05;;;;;;;5.10;0.80;;;20.70;99.90;;;;;;5092593;28;20043;-40
2022/08/31 08:11:31;;;;;;;3.42;0.60;;;20.80;99.90;;;;;;5092849;28;20139;-43
2022/08/31 08:13:58;;;;;;;3.10;0.73;;;20.30;99.90;;;;;;5091994;28;20052;-43
2022/08/31 08:16:24;;;;;;;1.30;0.52;;;20.30;99.90;;;;;;5092930;28;20046;-43
2022/08/31 08:18:49;;;;;;;1.55;0.65;;;20.20;99.90;;;;;;5091921;28;20452;-43
2022/08/31 08:21:15;;;;;;;4.43;0.60;;;19.80;99.90;;;;;;5091376;28;20146;-42
2022/08/31 08:23:41;;;;;;;1.73;0.77;;;19.80;99.90;;;;;;5092787;28;20159;-43
2022/08/31 08:26:10;;;;;;;3.38;0.68;;;19.90;99.90;;;;;;5092622;28;20071;-44
2022/08/31 08:28:36;;;;;;;1.98;0.55;;;19.90;99.90;;;;;;5092174;28;20040;-45
2022/08/31 08:31:02;;;;;;;2.95;0.63;;;19.80;99.90;;;;;;5090155;28;20044;-44
2022/08/31 08:33:29;;;;;;;2.90;0.68;;;19.60;99.90;;;;;;5093294;28;20688;-41
2022/08/31 08:36:01;;;;;;;3.00;0.70;;;19.70;99.90;;;;;;5091219;28;20142;-41
2022/08/31 08:38:32;;;;;;;3.58;1.10;;;19.60;99.90;;;;;;5092327;28;20511;-43
2022/08/31 08:41:01;;;;;;;5.53;0.85;;;19.50;99.90;;;;;;5092168;28;20042;-44
2022/08/31 08:43:34;;;;;;;3.20;0.82;;;19.50;99.90;;;;;;5092579;28;20104;-44
2022/08/31 08:46:02;;;;;;;3.78;0.80;;;19.50;99.90;;;;;;5075534;28;20400;-41
2022/08/31 08:48:32;;;;;;;7.25;1.27;;;19.60;99.90;;;;;;5093182;28;20047;-45
2022/08/31 08:51:01;;;;;;;2.88;0.77;;;19.30;99.90;;;;;;5093399;28;20055;-43
2022/08/31 08:53:29;;;;;;;4.13;0.68;;;19.30;99.90;;;;;;5093164;28;20453;-44
2022/08/31 08:55:55;;;;;;;3.00;0.63;;;19.50;99.90;;;;;;5093549;28;20046;-44
2022/08/31 08:58:21;;;;;;;3.67;0.50;;;19.50;99.90;;;;;;5092798;28;20667;-41
2022/08/31 09:00:51;;;;;;;2.05;0.55;;;19.40;99.90;;;;;;5093682;28;20077;-41
2022/08/31 09:03:29;;;;;;;1.58;0.60;;;19.50;99.90;;;;;;5093535;28;20040;-41
2022/08/31 09:06:13;;;;;;;1.73;0.65;;;19.40;99.90;;;;;;5092922;28;20055;-45
2022/08/31 09:09:08;;;;;;;6.38;0.47;;;19.50;99.90;;;;;;5092926;28;20040;-49
2022/08/31 09:11:38;;;;;;;4.20;1.40;;;19.30;99.90;;;;;;5076047;28;20075;-45
2022/08/31 09:15:02;;;;;;;3.40;0.77;;;19.40;99.90;;;;;;5097384;27;20948;-45
2022/08/31 09:17:55;;;;;;;3.95;0.70;;;19.20;99.90;;;;;;5053684;28;20127;-46
2022/08/31 09:20:22;;;;;;;3.38;0.52;;;19.30;99.90;;;;;;5052402;28;20849;-45
2022/08/31 09:22:51;;;;;;;2.08;0.60;;;19.50;99.90;;;;;;5081330;27;20056;-45
2022/08/31 09:25:28;;;;;;;2.33;0.52;;;19.60;99.90;;;;;;5095255;27;20035;-44
2022/08/31 09:27:58;;;;;;;1.38;0.47;;;19.50;99.90;;;;;;5096638;27;20403;-43
2022/08/31 09:30:44;;;;;;;4.45;0.70;;;19.70;99.90;;;;;;5095843;27;20496;-41
2022/08/31 09:33:43;;;;;;;3.42;0.80;;;19.60;99.90;;;;;;5096308;27;20035;-41
2022/08/31 09:36:17;;;;;;;1.20;0.50;;;19.90;99.90;;;;;;5092133;27;20051;-41
2022/08/31 09:38:45;;;;;;;4.45;0.60;;;20.60;99.90;;;;;;5094667;27;20744;-44
2022/08/31 09:41:32;;;;;;;4.20;0.60;;;20.60;99.90;;;;;;5095361;27;20670;-43
2022/08/31 09:44:28;;;;;;;3.65;0.68;;;20.60;99.90;;;;;;5094853;27;20054;-45
2022/08/31 09:47:00;;;;;;;4.22;0.70;;;20.50;99.90;;;;;;5095846;27;20052;-42
2022/08/31 09:49:37;;;;;;;2.63;0.50;;;20.60;99.90;;;;;;5095846;28;20047;-41
2022/08/31 09:55:16;;;;;;;3.17;0.63;;;20.80;99.90;;;;;;5094944;27;20508;-43
2022/08/31 09:57:42;;;;;;;1.05;0.60;;;21.00;99.90;;;;;;5095191;27;20046;-41
2022/08/31 10:00:14;;;;;;;1.55;0.60;;;20.90;99.90;;;;;;5094869;27;20036;-44
2022/08/31 10:02:42;;;;;;;2.80;0.50;;;20.90;99.90;;;;;;5095028;28;20036;-43
2022/08/31 10:05:30;;;;;;;3.22;0.60;;;21.00;99.90;;;;;;5094612;27;20040;-40
2022/08/31 10:08:05;;;;;;;2.72;1.02;;;21.20;99.90;;;;;;5094994;27;20047;-40
2022/08/31 10:10:38;;;;;;;1.77;0.40;;;21.30;99.90;;;;;;5096927;27;20454;-40
2022/08/31 10:13:33;;;;;;;0.73;0.40;;;21.70;99.90;;;;;;5095463;27;20051;-41
2022/08/31 10:16:05;;;;;;;1.88;0.60;;;21.70;99.90;;;;;;5095606;27;22029;-43
2022/08/31 10:19:03;;;;;;;9.57;1.02;;;21.80;99.90;;;;;;5095897;27;20786;-44
2022/08/31 10:21:50;;;;;;;4.78;0.73;;;21.90;99.90;;;;;;5093981;27;20048;-45
2022/08/31 10:24:44;;;;;;;5.60;1.25;;;22.00;99.90;;;;;;5094502;27;20399;-49
2022/08/31 10:27:31;;;;;;;2.47;0.80;;;21.90;99.90;;;;;;5093067;28;20123;-44
2022/08/31 10:30:39;;;;;;;8.73;1.30;;;22.00;99.90;;;;;;5094028;27;20385;-46
2022/08/31 10:33:15;;;;;;;1.45;0.40;;;21.70;99.90;;;;;;5093642;27;20036;-48
2022/08/31 10:36:00;;;;;;;1.50;0.50;;;21.60;99.90;;;;;;5093342;28;20776;-46
2022/08/31 10:38:31;;;;;;;3.28;0.70;;;21.70;99.90;;;;;;5092455;28;20064;-47
2022/08/31 10:41:06;;;;;;;1.70;0.50;;;21.90;99.90;;;;;;5093996;27;20050;-47
2022/08/31 10:43:52;;;;;;;1.52;0.60;;;21.80;99.90;;;;;;5093275;27;20519;-47
2022/08/31 10:46:18;;;;;;;1.05;0.50;;;21.90;99.90;;;;;;5093660;27;20055;-47
2022/08/31 10:48:53;;;;;;;3.53;0.52;;;21.90;99.90;;;;;;5094782;27;20559;-45
2022/08/31 10:51:41;;;;;;;4.47;0.70;;;22.10;99.90;;;;;;5093443;27;21192;-48
2022/08/31 10:54:46;;;;;;;2.83;0.68;;;22.20;99.90;;;;;;5093996;27;20044;-50
2022/08/31 10:57:30;;;;;;;1.63;0.60;;;22.10;99.90;;;;;;5093501;27;20066;-44
2022/08/31 11:00:40;;;;;;;1.17;0.60;;;22.20;99.90;;;;;;5093621;27;20422;-47
2022/08/31 11:03:15;;;;;;;4.07;0.80;;;22.60;99.90;;;;;;5092556;27;20080;-45
2022/08/31 11:05:48;;;;;;;2.85;0.73;;;20.70;99.90;;;;;;5093826;28;20536;-45
2022/08/31 11:08:26;;;;;;;4.70;0.77;;;22.90;99.90;;;;;;5092004;28;20531;-46
2022/08/31 11:10:55;;;;;;;2.13;0.70;;;22.80;99.90;;;;;;5091118;28;20043;-46
2022/08/31 11:13:59;;;;;;;0.95;0.50;;;22.70;99.90;;;;;;5093947;27;20047;-49
2022/08/31 11:16:42;;;;;;;1.38;0.50;;;22.90;99.90;;;;;;5094129;27;20055;-49
2022/08/31 11:19:26;;;;;;;2.78;0.60;;;22.80;99.90;;;;;;5093834;27;20130;-45
2022/08/31 11:21:52;;;;;;;4.75;0.98;;;22.50;99.90;;;;;;5092587;28;20533;-47
2022/08/31 11:24:54;;;;;;;2.33;0.50;;;22.80;99.90;;;;;;5093264;28;20133;-47
2022/08/31 11:27:32;;;;;;;3.90;0.85;;;23.00;99.90;;;;;;5054061;28;20141;-49
2022/08/31 11:30:26;;;;;;;2.88;0.70;;;22.90;99.90;;;;;;5093130;27;20104;-51
2022/08/31 11:32:59;;;;;;;5.05;0.93;;;22.70;99.90;;;;;;5093195;27;20048;-47
2022/08/31 11:36:04;;;;;;;1.52;0.63;;;23.00;99.90;;;;;;5092925;28;20126;-46
2022/08/31 11:38:46;;;;;;;1.65;0.60;;;23.10;99.90;;;;;;5093459;27;20080;-48
2022/08/31 11:41:50;;;;;;;1.33;0.35;;;22.90;99.90;;;;;;5093840;27;20048;-48
2022/08/31 11:44:32;;;;;;;1.60;0.50;;;23.20;99.90;;;;;;5092204;27;20662;-46
2022/08/31 11:47:11;;;;;;;7.07;0.70;;;22.90;99.90;;;;;;5094549;28;20063;-47
2022/08/31 11:49:44;;;;;;;3.72;0.80;;;23.20;99.90;;;;;;5094179;28;20403;-47
2022/08/31 11:52:42;;;;;;;2.42;0.60;;;23.10;99.90;;;;;;5092627;27;20419;-47
2022/08/31 11:55:29;;;;;;;1.67;0.70;;;22.90;99.90;;;;;;5088744;28;20114;-48
2022/08/31 11:58:08;;;;;;;4.88;0.85;;;22.90;99.90;;;;;;5093737;28;20058;-47
2022/08/31 12:01:08;;;;;;;4.10;0.57;;;23.00;99.80;;;;;;5092913;28;20109;-50
2022/08/31 12:03:51;;;;;;;2.55;0.60;;;23.10;99.30;;;;;;5092565;28;20040;-45
2022/08/31 12:06:30;;;;;;;1.70;0.60;;;23.20;99.50;;;;;;5092022;28;20046;-50
2022/08/31 12:09:10;;;;;;;5.53;0.70;;;23.40;98.90;;;;;;5092706;28;20050;-48
2022/08/31 12:11:46;;;;;;;3.28;0.50;;;23.40;99.10;;;;;;5092091;28;20079;-48
2022/08/31 12:14:38;;;;;;;1.77;0.60;;;23.10;97.70;;;;;;5091607;28;20039;-45
2022/08/31 12:17:26;;;;;;;2.47;0.45;;;23.10;98.50;;;;;;5090369;28;20052;-46
2022/08/31 12:20:15;;;;;;;2.22;1.05;;;22.90;98.50;;;;;;5092422;28;20048;-45
2022/08/31 12:25:45;;;;;;;3.50;0.52;;;23.00;98.40;;;;;;5092424;28;20500;-47
2022/08/31 12:28:45;;;;;;;2.97;0.65;;;23.10;98.20;;;;;;5092368;28;20669;-45
2022/08/31 12:31:16;;;;;;;0.88;0.30;;;23.20;97.90;;;;;;5092668;28;20244;-48
2022/08/31 12:34:08;;;;;;;1.83;0.60;;;23.20;98.90;;;;;;5092225;28;20530;-47
2022/08/31 12:36:36;;;;;;;1.45;0.60;;;23.30;99.00;;;;;;5091808;28;20209;-47
2022/08/31 12:39:22;;;;;;;1.52;0.45;;;23.40;99.10;;;;;;5092357;28;20766;-49
2022/08/31 12:41:57;;;;;;;3.22;0.50;;;23.30;98.00;;;;;;5091597;28;20185;-50
2022/08/31 12:44:32;;;;;;;3.33;0.70;;;23.30;98.10;;;;;;5092088;28;20428;-48
2022/08/31 12:47:06;;;;;;;1.88;0.50;;;23.30;98.00;;;;;;5095390;27;20128;-45
2022/08/31 12:49:59;;;;;;;2.63;0.70;;;23.40;98.60;;;;;;5097319;28;20404;-49
2022/08/31 12:53:02;;;;;;;1.38;0.30;;;23.50;97.60;;;;;;5096331;28;20126;-48
2022/08/31 12:55:37;;;;;;;2.08;1.05;;;21.50;96.10;;;;;;5051848;28;20051;-49
2022/08/31 12:58:19;;;;;;;1.60;0.50;;;23.30;97.60;;;;;;5052827;28;21173;-46
2022/08/31 13:00:45;;;;;;;2.42;0.50;;;23.30;96.80;;;;;;5079231;28;20079;-50
2022/08/31 13:03:18;;;;;;;2.58;1.17;;;23.10;98.20;;;;;;5094044;27;20040;-45
2022/08/31 13:05:58;;;;;;;3.40;0.50;;;23.10;97.70;;;;;;5095852;28;21029;-48
2022/08/31 13:08:25;;;;;;;1.20;0.60;;;23.10;98.50;;;;;;5094389;28;20044;-50
2022/08/31 13:10:51;;;;;;;0.77;0.47;;;23.20;98.10;;;;;;5094941;27;20038;-49
2022/08/31 13:13:24;;;;;;;2.33;0.50;;;23.10;97.90;;;;;;5096724;28;20044;-48
2022/08/31 13:15:56;;;;;;;3.17;0.43;;;23.10;97.80;;;;;;5096166;27;20039;-50
2022/08/31 13:18:26;;;;;;;3.60;0.65;;;23.30;97.70;;;;;;5096652;27;20135;-45
2022/08/31 13:20:55;;;;;;;2.38;0.55;;;23.30;97.60;;;;;;5095795;28;20371;-49
2022/08/31 13:23:39;;;;;;;1.10;0.35;;;23.20;97.70;;;;;;5095804;27;20027;-48
2022/08/31 13:26:24;;;;;;;1.02;0.40;;;23.50;98.30;;;;;;5096463;27;20414;-50
2022/08/31 13:28:51;;;;;;;6.63;0.65;;;23.40;97.20;;;;;;5092683;28;20661;-48